sensor_id;sensor_type;location;lat;lon;timestamp;P1;durP1;ratioP1;P2;durP2;ratioP2
76599;SDS011;65489;52.048;6.090;2023-04-01T00:00:07;0.52;;;0.20;;
76599;SDS011;65489;52.048;6.090;2023-04-01T00:02:37;0.50;;;0.20;;
76599;SDS011;65489;52.048;6.090;2023-04-01T00:05:02;0.50;;;0.30;;
76599;SDS011;65489;52.048;6.090;2023-04-01T00:07:29;1.25;;;0.40;;
76599;SDS011;65489;52.048;6.090;2023-04-01T00:09:55;0.75;;;0.32;;
76599;SDS011;65489;52.048;6.090;2023-04-01T00:12:21;0.25;;;0.15;;
76599;SDS011;65489;52.048;6.090;2023-04-01T00:14:46;0.40;;;0.20;;
76599;SDS011;65489;52.048;6.090;2023-04-01T00:17:11;0.55;;;0.20;;
76599;SDS011;65489;52.048;6.090;2023-04-01T00:19:37;1.85;;;0.20;;
76599;SDS011;65489;52.048;6.090;2023-04-01T00:22:02;1.38;;;0.20;;
76599;SDS011;65489;52.048;6.090;2023-04-01T00:24:28;0.40;;;0.20;;
76599;SDS011;65489;52.048;6.090;2023-04-01T00:26:54;0.50;;;0.30;;
76599;SDS011;65489;52.048;6.090;2023-04-01T00:29:20;0.30;;;0.20;;
76599;SDS011;65489;52.048;6.090;2023-04-01T00:31:45;0.40;;;0.20;;
76599;SDS011;65489;52.048;6.090;2023-04-01T00:34:11;0.52;;;0.20;;
76599;SDS011;65489;52.048;6.090;2023-04-01T00:36:37;0.60;;;0.20;;
76599;SDS011;65489;52.048;6.090;2023-04-01T00:39:03;1.00;;;0.20;;
76599;SDS011;65489;52.048;6.090;2023-04-01T00:41:28;0.60;;;0.20;;
76599;SDS011;65489;52.048;6.090;2023-04-01T00:44:11;0.60;;;0.20;;
76599;SDS011;65489;52.048;6.090;2023-04-01T00:46:40;0.85;;;0.20;;
76599;SDS011;65489;52.048;6.090;2023-04-01T00:49:05;0.80;;;0.20;;
76599;SDS011;65489;52.048;6.090;2023-04-01T00:51:31;0.50;;;0.28;;
76599;SDS011;65489;52.048;6.090;2023-04-01T00:53:58;0.95;;;0.40;;
76599;SDS011;65489;52.048;6.090;2023-04-01T00:56:26;0.45;;;0.20;;
76599;SDS011;65489;52.048;6.090;2023-04-01T00:58:58;2.22;;;0.30;;
76599;SDS011;65489;52.048;6.090;2023-04-01T01:01:25;0.50;;;0.20;;
76599;SDS011;65489;52.048;6.090;2023-04-01T01:03:51;0.63;;;0.20;;
76599;SDS011;65489;52.048;6.090;2023-04-01T01:12:05;0.50;;;0.20;;
76599;SDS011;65489;52.048;6.090;2023-04-01T01:14:41;0.50;;;0.20;;
76599;SDS011;65489;52.048;6.090;2023-04-01T01:17:21;0.28;;;0.20;;
76599;SDS011;65489;52.048;6.090;2023-04-01T01:28:21;0.70;;;0.22;;
76599;SDS011;65489;52.048;6.090;2023-04-01T01:34:09;0.60;;;0.20;;
76599;SDS011;65489;52.048;6.090;2023-04-01T01:36:38;0.68;;;0.40;;
76599;SDS011;65489;52.048;6.090;2023-04-01T01:39:08;0.43;;;0.22;;
76599;SDS011;65489;52.048;6.090;2023-04-01T01:41:35;1.02;;;0.20;;
76599;SDS011;65489;52.048;6.090;2023-04-01T01:44:04;0.50;;;0.30;;
76599;SDS011;65489;52.048;6.090;2023-04-01T01:46:31;1.40;;;0.30;;
76599;SDS011;65489;52.048;6.090;2023-04-01T01:48:56;0.55;;;0.20;;
76599;SDS011;65489;52.048;6.090;2023-04-01T01:51:23;0.50;;;0.10;;
76599;SDS011;65489;52.048;6.090;2023-04-01T01:53:48;0.63;;;0.20;;
76599;SDS011;65489;52.048;6.090;2023-04-01T01:56:17;0.47;;;0.30;;
76599;SDS011;65489;52.048;6.090;2023-04-01T01:58:47;1.05;;;0.30;;
76599;SDS011;65489;52.048;6.090;2023-04-01T02:01:20;1.08;;;0.20;;
76599;SDS011;65489;52.048;6.090;2023-04-01T02:03:50;0.82;;;0.20;;
76599;SDS011;65489;52.048;6.090;2023-04-01T02:06:19;0.30;;;0.20;;
76599;SDS011;65489;52.048;6.090;2023-04-01T02:08:47;0.30;;;0.10;;
76599;SDS011;65489;52.048;6.090;2023-04-01T02:11:17;0.50;;;0.30;;
76599;SDS011;65489;52.048;6.090;2023-04-01T02:13:52;0.30;;;0.20;;
76599;SDS011;65489;52.048;6.090;2023-04-01T02:16:23;0.28;;;0.13;;
76599;SDS011;65489;52.048;6.090;2023-04-01T02:18:53;0.30;;;0.10;;
76599;SDS011;65489;52.048;6.090;2023-04-01T02:21:20;0.40;;;0.20;;
76599;SDS011;65489;52.048;6.090;2023-04-01T02:23:47;1.25;;;0.28;;
76599;SDS011;65489;52.048;6.090;2023-04-01T02:26:14;0.40;;;0.20;;
76599;SDS011;65489;52.048;6.090;2023-04-01T02:28:40;0.40;;;0.20;;
76599;SDS011;65489;52.048;6.090;2023-04-01T02:31:07;0.25;;;0.13;;
76599;SDS011;65489;52.048;6.090;2023-04-01T02:33:34;0.30;;;0.22;;
76599;SDS011;65489;52.048;6.090;2023-04-01T02:36:00;0.43;;;0.20;;
76599;SDS011;65489;52.048;6.090;2023-04-01T02:38:26;0.20;;;0.20;;
76599;SDS011;65489;52.048;6.090;2023-04-01T02:40:56;0.30;;;0.20;;
76599;SDS011;65489;52.048;6.090;2023-04-01T02:43:27;0.40;;;0.20;;
76599;SDS011;65489;52.048;6.090;2023-04-01T02:45:52;0.40;;;0.20;;
76599;SDS011;65489;52.048;6.090;2023-04-01T02:48:18;0.45;;;0.22;;
76599;SDS011;65489;52.048;6.090;2023-04-01T02:50:44;0.55;;;0.20;;
76599;SDS011;65489;52.048;6.090;2023-04-01T02:53:10;0.88;;;0.20;;
76599;SDS011;65489;52.048;6.090;2023-04-01T02:55:36;0.40;;;0.20;;
76599;SDS011;65489;52.048;6.090;2023-04-01T02:58:01;0.82;;;0.30;;
76599;SDS011;65489;52.048;6.090;2023-04-01T03:00:28;0.40;;;0.20;;
76599;SDS011;65489;52.048;6.090;2023-04-01T03:02:54;0.60;;;0.20;;
76599;SDS011;65489;52.048;6.090;2023-04-01T03:05:20;0.40;;;0.20;;
76599;SDS011;65489;52.048;6.090;2023-04-01T03:07:46;0.60;;;0.28;;
76599;SDS011;65489;52.048;6.090;2023-04-01T03:10:12;0.65;;;0.20;;
76599;SDS011;65489;52.048;6.090;2023-04-01T03:12:38;0.32;;;0.13;;
76599;SDS011;65489;52.048;6.090;2023-04-01T03:15:03;0.30;;;0.20;;
76599;SDS011;65489;52.048;6.090;2023-04-01T03:17:29;0.73;;;0.20;;
76599;SDS011;65489;52.048;6.090;2023-04-01T03:19:55;0.70;;;0.20;;
76599;SDS011;65489;52.048;6.090;2023-04-01T03:22:20;0.55;;;0.22;;
76599;SDS011;65489;52.048;6.090;2023-04-01T03:24:46;0.38;;;0.20;;
76599;SDS011;65489;52.048;6.090;2023-04-01T03:27:12;0.52;;;0.20;;
76599;SDS011;65489;52.048;6.090;2023-04-01T03:29:38;1.05;;;0.30;;
76599;SDS011;65489;52.048;6.090;2023-04-01T03:32:04;0.60;;;0.10;;
76599;SDS011;65489;52.048;6.090;2023-04-01T03:34:29;0.63;;;0.20;;
76599;SDS011;65489;52.048;6.090;2023-04-01T03:36:55;0.47;;;0.22;;
76599;SDS011;65489;52.048;6.090;2023-04-01T03:39:21;0.30;;;0.20;;
76599;SDS011;65489;52.048;6.090;2023-04-01T03:41:47;0.60;;;0.20;;
76599;SDS011;65489;52.048;6.090;2023-04-01T03:44:13;0.52;;;0.20;;
76599;SDS011;65489;52.048;6.090;2023-04-01T03:46:39;0.60;;;0.20;;
76599;SDS011;65489;52.048;6.090;2023-04-01T03:49:08;0.40;;;0.30;;
76599;SDS011;65489;52.048;6.090;2023-04-01T03:51:42;0.40;;;0.20;;
76599;SDS011;65489;52.048;6.090;2023-04-01T03:54:09;0.25;;;0.10;;
76599;SDS011;65489;52.048;6.090;2023-04-01T03:56:35;0.32;;;0.20;;
76599;SDS011;65489;52.048;6.090;2023-04-01T03:59:02;0.52;;;0.20;;
76599;SDS011;65489;52.048;6.090;2023-04-01T04:01:29;0.57;;;0.27;;
76599;SDS011;65489;52.048;6.090;2023-04-01T04:03:55;0.22;;;0.20;;
76599;SDS011;65489;52.048;6.090;2023-04-01T04:06:22;0.40;;;0.20;;
76599;SDS011;65489;52.048;6.090;2023-04-01T04:08:48;0.30;;;0.15;;
76599;SDS011;65489;52.048;6.090;2023-04-01T04:11:14;0.30;;;0.20;;
76599;SDS011;65489;52.048;6.090;2023-04-01T04:13:41;0.45;;;0.20;;
76599;SDS011;65489;52.048;6.090;2023-04-01T04:16:08;0.30;;;0.10;;
76599;SDS011;65489;52.048;6.090;2023-04-01T04:18:37;0.57;;;0.20;;
76599;SDS011;65489;52.048;6.090;2023-04-01T04:21:03;0.38;;;0.05;;
76599;SDS011;65489;52.048;6.090;2023-04-01T04:23:29;0.30;;;0.20;;
76599;SDS011;65489;52.048;6.090;2023-04-01T04:26:05;0.73;;;0.30;;
76599;SDS011;65489;52.048;6.090;2023-04-01T04:28:32;1.05;;;0.20;;
76599;SDS011;65489;52.048;6.090;2023-04-01T04:30:58;0.82;;;0.20;;
76599;SDS011;65489;52.048;6.090;2023-04-01T04:33:24;0.30;;;0.20;;
76599;SDS011;65489;52.048;6.090;2023-04-01T04:35:51;0.55;;;0.10;;
76599;SDS011;65489;52.048;6.090;2023-04-01T04:38:17;0.47;;;0.20;;
76599;SDS011;65489;52.048;6.090;2023-04-01T04:40:43;0.30;;;0.20;;
76599;SDS011;65489;52.048;6.090;2023-04-01T04:43:12;1.23;;;0.30;;
76599;SDS011;65489;52.048;6.090;2023-04-01T04:45:39;1.55;;;0.20;;
76599;SDS011;65489;52.048;6.090;2023-04-01T04:48:05;0.20;;;0.20;;
76599;SDS011;65489;52.048;6.090;2023-04-01T04:50:33;0.55;;;0.20;;
76599;SDS011;65489;52.048;6.090;2023-04-01T04:52:58;1.10;;;0.17;;
76599;SDS011;65489;52.048;6.090;2023-04-01T04:55:24;0.55;;;0.20;;
76599;SDS011;65489;52.048;6.090;2023-04-01T04:58:08;0.30;;;0.20;;
76599;SDS011;65489;52.048;6.090;2023-04-01T05:00:34;0.30;;;0.22;;
76599;SDS011;65489;52.048;6.090;2023-04-01T05:03:03;0.28;;;0.20;;
76599;SDS011;65489;52.048;6.090;2023-04-01T05:05:30;0.22;;;0.10;;
76599;SDS011;65489;52.048;6.090;2023-04-01T05:07:56;0.40;;;0.20;;
76599;SDS011;65489;52.048;6.090;2023-04-01T05:10:21;0.22;;;0.15;;
76599;SDS011;65489;52.048;6.090;2023-04-01T05:12:47;0.52;;;0.10;;
76599;SDS011;65489;52.048;6.090;2023-04-01T05:15:16;0.73;;;0.20;;
76599;SDS011;65489;52.048;6.090;2023-04-01T05:17:42;0.40;;;0.10;;
76599;SDS011;65489;52.048;6.090;2023-04-01T05:20:08;0.20;;;0.10;;
76599;SDS011;65489;52.048;6.090;2023-04-01T05:22:34;0.32;;;0.13;;
76599;SDS011;65489;52.048;6.090;2023-04-01T05:25:00;0.77;;;0.17;;
76599;SDS011;65489;52.048;6.090;2023-04-01T05:27:27;0.20;;;0.13;;
76599;SDS011;65489;52.048;6.090;2023-04-01T05:29:52;0.35;;;0.10;;
76599;SDS011;65489;52.048;6.090;2023-04-01T05:32:42;0.30;;;0.10;;
76599;SDS011;65489;52.048;6.090;2023-04-01T05:35:08;0.30;;;0.20;;
76599;SDS011;65489;52.048;6.090;2023-04-01T05:37:35;0.38;;;0.10;;
76599;SDS011;65489;52.048;6.090;2023-04-01T05:40:02;0.25;;;0.20;;
76599;SDS011;65489;52.048;6.090;2023-04-01T05:42:28;0.38;;;0.15;;
76599;SDS011;65489;52.048;6.090;2023-04-01T05:44:54;0.70;;;0.10;;
76599;SDS011;65489;52.048;6.090;2023-04-01T05:47:39;2.50;;;0.20;;
76599;SDS011;65489;52.048;6.090;2023-04-01T05:50:05;0.50;;;0.20;;
76599;SDS011;65489;52.048;6.090;2023-04-01T05:52:30;0.30;;;0.20;;
76599;SDS011;65489;52.048;6.090;2023-04-01T05:54:56;0.35;;;0.20;;
76599;SDS011;65489;52.048;6.090;2023-04-01T05:57:21;0.30;;;0.20;;
76599;SDS011;65489;52.048;6.090;2023-04-01T05:59:47;0.63;;;0.22;;
76599;SDS011;65489;52.048;6.090;2023-04-01T06:02:12;0.30;;;0.10;;
76599;SDS011;65489;52.048;6.090;2023-04-01T06:04:38;0.30;;;0.20;;
76599;SDS011;65489;52.048;6.090;2023-04-01T06:07:08;0.40;;;0.20;;
76599;SDS011;65489;52.048;6.090;2023-04-01T06:09:39;0.38;;;0.20;;
76599;SDS011;65489;52.048;6.090;2023-04-01T06:26:07;0.22;;;0.20;;
76599;SDS011;65489;52.048;6.090;2023-04-01T06:31:21;0.20;;;0.10;;
76599;SDS011;65489;52.048;6.090;2023-04-01T06:43:18;0.43;;;0.30;;
76599;SDS011;65489;52.048;6.090;2023-04-01T06:45:49;0.35;;;0.20;;
76599;SDS011;65489;52.048;6.090;2023-04-01T06:58:06;0.57;;;0.20;;
76599;SDS011;65489;52.048;6.090;2023-04-01T07:00:39;0.40;;;0.25;;
76599;SDS011;65489;52.048;6.090;2023-04-01T07:05:47;0.30;;;0.13;;
76599;SDS011;65489;52.048;6.090;2023-04-01T07:08:18;0.50;;;0.20;;
76599;SDS011;65489;52.048;6.090;2023-04-01T07:10:50;0.68;;;0.32;;
76599;SDS011;65489;52.048;6.090;2023-04-01T07:13:43;0.30;;;0.20;;
76599;SDS011;65489;52.048;6.090;2023-04-01T07:16:36;0.40;;;0.20;;
76599;SDS011;65489;52.048;6.090;2023-04-01T07:19:22;0.50;;;0.30;;
76599;SDS011;65489;52.048;6.090;2023-04-01T07:25:15;0.73;;;0.30;;
76599;SDS011;65489;52.048;6.090;2023-04-01T07:27:51;0.43;;;0.20;;
76599;SDS011;65489;52.048;6.090;2023-04-01T07:30:20;1.67;;;0.30;;
76599;SDS011;65489;52.048;6.090;2023-04-01T07:32:51;0.40;;;0.30;;
76599;SDS011;65489;52.048;6.090;2023-04-01T07:35:27;0.77;;;0.30;;
76599;SDS011;65489;52.048;6.090;2023-04-01T07:38:11;0.30;;;0.20;;
76599;SDS011;65489;52.048;6.090;2023-04-01T07:40:49;0.30;;;0.20;;
76599;SDS011;65489;52.048;6.090;2023-04-01T07:48:55;0.57;;;0.30;;
76599;SDS011;65489;52.048;6.090;2023-04-01T07:54:09;0.52;;;0.30;;
76599;SDS011;65489;52.048;6.090;2023-04-01T07:56:57;0.25;;;0.13;;
76599;SDS011;65489;52.048;6.090;2023-04-01T08:03:14;0.40;;;0.20;;
76599;SDS011;65489;52.048;6.090;2023-04-01T08:15:09;0.40;;;0.20;;
76599;SDS011;65489;52.048;6.090;2023-04-01T08:21:38;0.90;;;0.20;;
76599;SDS011;65489;52.048;6.090;2023-04-01T08:24:17;0.63;;;0.30;;
76599;SDS011;65489;52.048;6.090;2023-04-01T08:27:00;0.70;;;0.20;;
76599;SDS011;65489;52.048;6.090;2023-04-01T08:29:37;1.92;;;0.30;;
76599;SDS011;65489;52.048;6.090;2023-04-01T08:32:11;1.10;;;0.40;;
76599;SDS011;65489;52.048;6.090;2023-04-01T08:34:42;1.38;;;0.40;;
76599;SDS011;65489;52.048;6.090;2023-04-01T08:37:25;0.77;;;0.32;;
76599;SDS011;65489;52.048;6.090;2023-04-01T08:39:58;1.55;;;0.40;;
76599;SDS011;65489;52.048;6.090;2023-04-01T08:59:25;1.30;;;0.32;;
76599;SDS011;65489;52.048;6.090;2023-04-01T09:11:32;0.90;;;0.30;;
76599;SDS011;65489;52.048;6.090;2023-04-01T09:14:07;1.00;;;0.45;;
76599;SDS011;65489;52.048;6.090;2023-04-01T09:19:53;0.98;;;0.30;;
76599;SDS011;65489;52.048;6.090;2023-04-01T09:22:36;0.77;;;0.50;;
76599;SDS011;65489;52.048;6.090;2023-04-01T09:33:36;1.27;;;0.40;;
76599;SDS011;65489;52.048;6.090;2023-04-01T09:41:29;1.52;;;0.47;;
76599;SDS011;65489;52.048;6.090;2023-04-01T09:55:24;1.48;;;0.35;;
76599;SDS011;65489;52.048;6.090;2023-04-01T10:04:35;1.17;;;0.40;;
76599;SDS011;65489;52.048;6.090;2023-04-01T10:24:12;1.17;;;0.40;;
76599;SDS011;65489;52.048;6.090;2023-04-01T10:35:30;2.90;;;0.50;;
76599;SDS011;65489;52.048;6.090;2023-04-01T10:38:56;0.60;;;0.30;;
76599;SDS011;65489;52.048;6.090;2023-04-01T11:25:29;0.80;;;0.40;;
76599;SDS011;65489;52.048;6.090;2023-04-01T11:43:29;0.90;;;0.30;;
76599;SDS011;65489;52.048;6.090;2023-04-01T11:46:20;1.02;;;0.30;;
76599;SDS011;65489;52.048;6.090;2023-04-01T11:57:17;1.85;;;0.30;;
76599;SDS011;65489;52.048;6.090;2023-04-01T11:59:57;0.60;;;0.20;;
76599;SDS011;65489;52.048;6.090;2023-04-01T12:05:50;1.17;;;0.40;;
76599;SDS011;65489;52.048;6.090;2023-04-01T12:08:28;1.48;;;0.30;;
76599;SDS011;65489;52.048;6.090;2023-04-01T12:17:08;0.80;;;0.20;;
76599;SDS011;65489;52.048;6.090;2023-04-01T12:19:51;0.70;;;0.30;;
76599;SDS011;65489;52.048;6.090;2023-04-01T12:24:46;1.02;;;0.20;;
76599;SDS011;65489;52.048;6.090;2023-04-01T12:27:27;0.80;;;0.30;;
76599;SDS011;65489;52.048;6.090;2023-04-01T12:35:24;1.67;;;0.25;;
76599;SDS011;65489;52.048;6.090;2023-04-01T12:38:09;0.30;;;0.20;;
76599;SDS011;65489;52.048;6.090;2023-04-01T12:52:00;1.92;;;0.60;;
76599;SDS011;65489;52.048;6.090;2023-04-01T13:16:52;0.65;;;0.40;;
76599;SDS011;65489;52.048;6.090;2023-04-01T13:22:18;0.30;;;0.20;;
76599;SDS011;65489;52.048;6.090;2023-04-01T13:27:47;0.35;;;0.20;;
76599;SDS011;65489;52.048;6.090;2023-04-01T13:38:32;1.67;;;1.05;;
76599;SDS011;65489;52.048;6.090;2023-04-01T13:43:51;0.85;;;0.50;;
76599;SDS011;65489;52.048;6.090;2023-04-01T13:49:13;0.70;;;0.30;;
76599;SDS011;65489;52.048;6.090;2023-04-01T13:57:34;0.63;;;0.47;;
76599;SDS011;65489;52.048;6.090;2023-04-01T14:00:48;0.68;;;0.30;;
76599;SDS011;65489;52.048;6.090;2023-04-01T14:05:48;0.50;;;0.30;;
76599;SDS011;65489;52.048;6.090;2023-04-01T14:11:10;0.95;;;0.30;;
76599;SDS011;65489;52.048;6.090;2023-04-01T14:16:54;0.50;;;0.40;;
76599;SDS011;65489;52.048;6.090;2023-04-01T14:19:49;0.70;;;0.30;;
76599;SDS011;65489;52.048;6.090;2023-04-01T14:22:38;0.32;;;0.20;;
76599;SDS011;65489;52.048;6.090;2023-04-01T14:39:27;0.95;;;0.30;;
76599;SDS011;65489;52.048;6.090;2023-04-01T14:47:50;0.90;;;0.55;;
76599;SDS011;65489;52.048;6.090;2023-04-01T14:50:17;0.50;;;0.40;;
76599;SDS011;65489;52.048;6.090;2023-04-01T14:52:46;0.60;;;0.40;;
76599;SDS011;65489;52.048;6.090;2023-04-01T14:58:04;0.50;;;0.30;;
76599;SDS011;65489;52.048;6.090;2023-04-01T15:00:41;0.70;;;0.30;;
76599;SDS011;65489;52.048;6.090;2023-04-01T15:03:18;0.63;;;0.40;;
76599;SDS011;65489;52.048;6.090;2023-04-01T15:24:46;0.50;;;0.40;;
76599;SDS011;65489;52.048;6.090;2023-04-01T15:47:26;0.68;;;0.40;;
76599;SDS011;65489;52.048;6.090;2023-04-01T15:58:27;0.55;;;0.40;;
76599;SDS011;65489;52.048;6.090;2023-04-01T16:01:18;0.32;;;0.30;;
76599;SDS011;65489;52.048;6.090;2023-04-01T16:04:23;0.70;;;0.40;;
76599;SDS011;65489;52.048;6.090;2023-04-01T16:12:19;0.68;;;0.30;;
76599;SDS011;65489;52.048;6.090;2023-04-01T16:20:39;0.30;;;0.30;;
76599;SDS011;65489;52.048;6.090;2023-04-01T16:23:35;0.40;;;0.20;;
76599;SDS011;65489;52.048;6.090;2023-04-01T16:26:12;0.50;;;0.20;;
76599;SDS011;65489;52.048;6.090;2023-04-01T16:28:48;0.82;;;0.30;;
76599;SDS011;65489;52.048;6.090;2023-04-01T16:36:58;0.52;;;0.40;;
76599;SDS011;65489;52.048;6.090;2023-04-01T16:47:35;0.57;;;0.32;;
76599;SDS011;65489;52.048;6.090;2023-04-01T16:55:33;0.50;;;0.30;;
76599;SDS011;65489;52.048;6.090;2023-04-01T16:58:01;0.93;;;0.45;;
76599;SDS011;65489;52.048;6.090;2023-04-01T17:00:28;0.50;;;0.30;;
76599;SDS011;65489;52.048;6.090;2023-04-01T17:06:03;0.30;;;0.28;;
76599;SDS011;65489;52.048;6.090;2023-04-01T17:08:41;0.50;;;0.40;;
76599;SDS011;65489;52.048;6.090;2023-04-01T17:11:19;0.30;;;0.30;;
76599;SDS011;65489;52.048;6.090;2023-04-01T17:16:46;0.50;;;0.40;;
76599;SDS011;65489;52.048;6.090;2023-04-01T17:19:29;0.50;;;0.40;;
76599;SDS011;65489;52.048;6.090;2023-04-01T17:22:22;0.70;;;0.45;;
76599;SDS011;65489;52.048;6.090;2023-04-01T17:24:57;0.50;;;0.43;;
76599;SDS011;65489;52.048;6.090;2023-04-01T17:38:39;1.10;;;0.40;;
76599;SDS011;65489;52.048;6.090;2023-04-01T17:56:02;0.50;;;0.30;;
76599;SDS011;65489;52.048;6.090;2023-04-01T17:58:50;0.50;;;0.30;;
76599;SDS011;65489;52.048;6.090;2023-04-01T18:07:17;0.38;;;0.30;;
76599;SDS011;65489;52.048;6.090;2023-04-01T18:10:04;0.30;;;0.30;;
76599;SDS011;65489;52.048;6.090;2023-04-01T18:12:40;0.40;;;0.40;;
76599;SDS011;65489;52.048;6.090;2023-04-01T18:15:35;0.50;;;0.40;;
76599;SDS011;65489;52.048;6.090;2023-04-01T18:18:11;0.90;;;0.40;;
76599;SDS011;65489;52.048;6.090;2023-04-01T18:26:58;0.60;;;0.50;;
76599;SDS011;65489;52.048;6.090;2023-04-01T18:29:47;0.50;;;0.40;;
76599;SDS011;65489;52.048;6.090;2023-04-01T18:32:19;0.40;;;0.40;;
76599;SDS011;65489;52.048;6.090;2023-04-01T18:34:53;0.60;;;0.52;;
76599;SDS011;65489;52.048;6.090;2023-04-01T18:37:34;0.50;;;0.50;;
76599;SDS011;65489;52.048;6.090;2023-04-01T18:40:10;0.50;;;0.40;;
76599;SDS011;65489;52.048;6.090;2023-04-01T18:47:38;0.47;;;0.40;;
76599;SDS011;65489;52.048;6.090;2023-04-01T18:50:27;0.50;;;0.40;;
76599;SDS011;65489;52.048;6.090;2023-04-01T18:52:59;0.75;;;0.40;;
76599;SDS011;65489;52.048;6.090;2023-04-01T18:55:42;0.50;;;0.40;;
76599;SDS011;65489;52.048;6.090;2023-04-01T18:58:21;0.40;;;0.35;;
76599;SDS011;65489;52.048;6.090;2023-04-01T19:03:46;0.73;;;0.40;;
76599;SDS011;65489;52.048;6.090;2023-04-01T19:06:26;0.40;;;0.40;;
76599;SDS011;65489;52.048;6.090;2023-04-01T19:08:56;0.85;;;0.50;;
76599;SDS011;65489;52.048;6.090;2023-04-01T19:14:59;0.43;;;0.43;;
76599;SDS011;65489;52.048;6.090;2023-04-01T19:23:06;0.53;;;0.40;;
76599;SDS011;65489;52.048;6.090;2023-04-01T19:25:43;0.60;;;0.50;;
76599;SDS011;65489;52.048;6.090;2023-04-01T19:31:03;0.77;;;0.50;;
76599;SDS011;65489;52.048;6.090;2023-04-01T19:33:41;0.55;;;0.50;;
76599;SDS011;65489;52.048;6.090;2023-04-01T19:36:17;0.57;;;0.40;;
76599;SDS011;65489;52.048;6.090;2023-04-01T19:38:53;0.50;;;0.43;;
76599;SDS011;65489;52.048;6.090;2023-04-01T19:41:35;0.60;;;0.40;;
76599;SDS011;65489;52.048;6.090;2023-04-01T19:44:12;0.60;;;0.50;;
76599;SDS011;65489;52.048;6.090;2023-04-01T19:49:27;0.40;;;0.38;;
76599;SDS011;65489;52.048;6.090;2023-04-01T19:52:47;0.70;;;0.60;;
76599;SDS011;65489;52.048;6.090;2023-04-01T19:57:52;0.40;;;0.38;;
76599;SDS011;65489;52.048;6.090;2023-04-01T20:00:44;0.52;;;0.40;;
76599;SDS011;65489;52.048;6.090;2023-04-01T20:09:05;0.70;;;0.40;;
76599;SDS011;65489;52.048;6.090;2023-04-01T20:11:57;0.55;;;0.50;;
76599;SDS011;65489;52.048;6.090;2023-04-01T20:14:46;0.55;;;0.50;;
76599;SDS011;65489;52.048;6.090;2023-04-01T20:17:44;0.63;;;0.60;;
76599;SDS011;65489;52.048;6.090;2023-04-01T20:27:55;0.60;;;0.55;;
76599;SDS011;65489;52.048;6.090;2023-04-01T20:39:04;0.57;;;0.50;;
76599;SDS011;65489;52.048;6.090;2023-04-01T20:44:21;0.70;;;0.50;;
76599;SDS011;65489;52.048;6.090;2023-04-01T20:47:20;0.50;;;0.50;;
76599;SDS011;65489;52.048;6.090;2023-04-01T20:55:47;1.10;;;0.60;;
76599;SDS011;65489;52.048;6.090;2023-04-01T21:07:28;0.50;;;0.50;;
76599;SDS011;65489;52.048;6.090;2023-04-01T21:18:34;0.63;;;0.63;;
76599;SDS011;65489;52.048;6.090;2023-04-01T21:24:23;0.70;;;0.60;;
76599;SDS011;65489;52.048;6.090;2023-04-01T21:30:04;0.50;;;0.43;;
76599;SDS011;65489;52.048;6.090;2023-04-01T21:42:43;0.55;;;0.50;;
76599;SDS011;65489;52.048;6.090;2023-04-01T21:56:17;0.50;;;0.50;;
76599;SDS011;65489;52.048;6.090;2023-04-01T22:06:46;0.50;;;0.50;;
76599;SDS011;65489;52.048;6.090;2023-04-01T22:09:29;0.60;;;0.50;;
76599;SDS011;65489;52.048;6.090;2023-04-01T22:12:00;0.30;;;0.30;;
76599;SDS011;65489;52.048;6.090;2023-04-01T22:17:18;0.50;;;0.47;;
76599;SDS011;65489;52.048;6.090;2023-04-01T22:28:15;0.50;;;0.47;;
76599;SDS011;65489;52.048;6.090;2023-04-01T22:30:51;0.40;;;0.40;;
76599;SDS011;65489;52.048;6.090;2023-04-01T22:41:47;1.70;;;0.40;;
76599;SDS011;65489;52.048;6.090;2023-04-01T22:47:44;0.45;;;0.43;;
76599;SDS011;65489;52.048;6.090;2023-04-01T22:55:42;0.50;;;0.43;;
76599;SDS011;65489;52.048;6.090;2023-04-01T22:58:12;0.57;;;0.50;;
76599;SDS011;65489;52.048;6.090;2023-04-01T23:03:14;0.60;;;0.52;;
76599;SDS011;65489;52.048;6.090;2023-04-01T23:05:52;0.40;;;0.35;;
76599;SDS011;65489;52.048;6.090;2023-04-01T23:08:35;0.50;;;0.50;;
76599;SDS011;65489;52.048;6.090;2023-04-01T23:11:07;0.70;;;0.60;;
76599;SDS011;65489;52.048;6.090;2023-04-01T23:13:36;0.80;;;0.60;;
76599;SDS011;65489;52.048;6.090;2023-04-01T23:16:04;0.50;;;0.50;;
76599;SDS011;65489;52.048;6.090;2023-04-01T23:18:34;0.60;;;0.50;;
76599;SDS011;65489;52.048;6.090;2023-04-01T23:21:13;0.50;;;0.50;;
76599;SDS011;65489;52.048;6.090;2023-04-01T23:28:57;0.40;;;0.40;;
76599;SDS011;65489;52.048;6.090;2023-04-01T23:31:37;0.50;;;0.50;;
76599;SDS011;65489;52.048;6.090;2023-04-01T23:36:39;0.70;;;0.60;;
76599;SDS011;65489;52.048;6.090;2023-04-01T23:39:50;1.60;;;0.50;;
76599;SDS011;65489;52.048;6.090;2023-04-01T23:44:49;0.50;;;0.50;;
76599;SDS011;65489;52.048;6.090;2023-04-01T23:47:26;1.35;;;0.50;;
76599;SDS011;65489;52.048;6.090;2023-04-01T23:49:56;0.50;;;0.40;;
76599;SDS011;65489;52.048;6.090;2023-04-01T23:52:30;0.50;;;0.45;;
76599;SDS011;65489;52.048;6.090;2023-04-01T23:55:08;0.98;;;0.50;;
76599;SDS011;65489;52.048;6.090;2023-04-01T23:57:35;0.93;;;0.60;;
